Krisztian Szalai

Chief Scout - Honved
20 Feb 2028
Sunday
Process

Personality

Adaptability (3) Ambition (3) Controversy (15) Loyalty (8) Pressure (18) Professionalism (1) Sportsmanship (15) Temperament (6)

Profile

Coaching Style Democratic
License National B
Determination 12
Man Management 8
Motivating 12
Discipline 8
Job Satisfaction
100%
Fatigue
0%
Role Chief Scout
Wage 20.9K p/w
Contract 14.03.2030

Performance

Behaviour Good
Training Effectiveness
45%
Player Development
35%
Injury Prevention
50%
Tactical Implementation
25%

Recent Events

Attended a recruitment meeting now
Attended a recruitment meeting 7d ago
Attended a recruitment meeting 7d ago
Attended a recruitment meeting 7d ago
Attended a recruitment meeting 14d ago
Attended a recruitment meeting 14d ago
Attended a recruitment meeting 14d ago
Attended a recruitment meeting 21d ago

Currently Monitoring

142
Player Club Status Ability Confidence Watched Last Observed Latest Vote
Marco Bustillo Zamora Lost 104 / 116 40% 3 10.01.2028 -
David Fiola Haladas Active 79 / 102 55% 1 10.01.2028 -
Dénes Szakál Debrecen Active 94 / 94 55% 1 02.01.2028 -
Adalberto Peñaranda Deportivo Tachira Active 113 / 105 40% 4 31.12.2027 -
Eric Ramírez Llaneros Active 104 / 111 40% 2 31.12.2027 -
Santiago Sala Güemes Active 126 / 123 40% 4 30.12.2027 -
Kevin Méndez Dinamo Tbilisi Active 125 / 122 40% 6 29.12.2027 -
Gianluca Pugliese Güemes Active 109 / 108 40% 2 29.12.2027 -
Jefry Zapata Danubio Lost 129 / 118 40% 4 28.12.2027 -
Mandla Mahlangu Ajax Cape Town Active 116 / 115 40% 1 28.12.2027 -
Agustín Gallo Tristán Suárez Active 111 / 100 40% 3 27.12.2027 -
Alejo Cruz Juventud Active 124 / 123 40% 2 26.12.2027 -
Nicolás Cordero Aldosivi Lost 127 / 127 40% 1 26.12.2027 -
Federico Martínez Liverpool Montevideo Active 110 / 107 40% 2 25.12.2027 -
Javier Martínez Almirante Brown Active 98 / 106 40% 1 23.12.2027 -
Victor Mbaoma Tusker Active 102 / 106 40% 1 23.12.2027 -
Santiago Apa All Boys Active 101 / 112 40% 5 20.12.2027 -
Lewis Morgan SuperSport United Active 128 / 118 40% 6 19.12.2027 -
Fernando Mimbacas Juventud Lost 112 / 125 40% 3 16.12.2027 -
Richard Figueroa Deportivo Lara Active 104 / 89 40% 2 16.12.2027 -
Maclyn Biokpo Jenewari Rivers United Active 121 / 107 40% 2 15.12.2027 -
Juan Rocca Gimnasia y Tiro Active 106 / 106 40% 1 15.12.2027 -
Leandro Suhr Boston River Lost 138 / 108 40% 2 14.12.2027 -
Luca Martínez Dupuy Godoy Cruz Lost 140 / 120 40% 5 12.12.2027 -
Nahuel Soria Oriental Active 92 / 103 40% 1 12.12.2027 -
Bautista Tomatis Racing Lost 129 / 103 40% 1 08.12.2027 -
Junior Paredes Trujillanos Active 89 / 92 40% 1 08.12.2027 -
Samuel Anakwe Remo Stars Active 93 / 91 40% 3 28.11.2027 -
Agustín Módica Gimnasia y Esgrima Active 121 / 118 40% 3 25.11.2027 -
Misael Sosa Godoy Cruz Active 103 / 107 40% 2 25.11.2027 -
Luciano Cosentino Wanderers Active 111 / 115 40% 5 23.11.2027 -
Alexander Díaz Deportivo Riestra Active 124 / 119 40% 1 18.11.2027 -
Joaquín Zeballos Wanderers Active 100 / 103 40% 1 14.11.2027 -
Lucas Carrizo Plaza Colonia Active 108 / 117 40% 1 11.11.2027 -
Sunday Megwo Abia Warriors Active 93 / 98 40% 1 04.11.2027 -
Tiziano Dornell Danubio Active 98 / 126 40% 2 02.11.2027 -
Agustín Paz Progreso Active 107 / 111 40% 2 29.10.2027 -
Nicolás Heiz Maipú Active 125 / 113 40% 1 23.10.2027 -
Timothy Zechariah Rivers United Active 101 / 86 40% 1 20.10.2027 -
Marco Miori Alvarado Active 109 / 114 40% 2 19.10.2027 -
Elías Ayala Madryn Active 96 / 98 40% 1 18.10.2027 -
Sebastián Cocimano Nueva Chicago Active 127 / 128 40% 1 16.10.2027 -
Cristian Barros Cerro Active 90 / 112 40% 1 16.10.2027 -
Gustavo Viera Cerro Largo Active 94 / 99 40% 1 10.10.2027 -
Oto John ES Mostaganem Active 87 / 108 40% 1 23.08.2027 -
David Romero Parma Active 129 / 126 40% 1 10.08.2027 -
Livio Milts Paksi Active 87 / 83 55% 1 19.07.2027 -
Benjámin Gólik Ferencvaros Active 87 / 84 55% 1 07.06.2027 -
Danijel Zagorac Bekescsaba Active 97 / 94 55% 1 01.06.2027 -
Zeidane Inoussa Swansea City Active 117 / 115 40% 3 30.05.2027 -
Scott Twine Bristol City Active 116 / 133 40% 1 28.05.2027 -
Alessio Zerbin Frosinone Active 124 / 124 40% 4 26.05.2027 -
Derry Murkin Derby County Active 119 / 136 40% 1 25.05.2027 -
Milan van Ewijk Mansfield Town Active 126 / 141 40% 1 25.05.2027 -
Ryoya Morishita Blackburn Rovers Active 122 / 135 40% 1 24.05.2027 -
Ethan Williams Peterborough United Active 112 / 112 40% 1 24.05.2027 -
Daniel Kyerewaa Reading Active 122 / 102 40% 2 23.05.2027 -
Kristoffer Lund Birmingham Active 133 / 125 40% 1 23.05.2027 -
Josh Tymon Swansea City Active 119 / 121 40% 1 21.05.2027 -
Brian De Keersmaecker Oxford United Active 131 / 128 40% 1 21.05.2027 Needs More Info
Ross McCrorie Bristol City Active 132 / 137 40% 1 21.05.2027 Needs More Info
Alex Lowry Wycombe Wanderers Active 125 / 128 40% 1 20.05.2027 Needs More Info
Josh Koroma Leyton Orient Active 99 / 95 40% 1 20.05.2027 -
Harry Leonard Peterborough United Active 120 / 119 40% 2 17.05.2027 -
Tshepang Moremi Orlando Pirates Active 118 / 111 40% 4 16.05.2027 -
Jacques Ekomié Wrexham Active 133 / 122 40% 1 16.05.2027 -
Kane Wilson Milton Keynes Dons Active 121 / 116 40% 1 16.05.2027 -
George Earthy Reading Active 112 / 129 40% 1 14.05.2027 -
Ronan Hale Gillingham Active 123 / 114 40% 1 12.05.2027 Needs More Info
Xavier Amaechi Plymouth Argyle Active 109 / 112 40% 1 12.05.2027 -
Mattéo Tramoni Pisa Active 127 / 120 40% 2 11.05.2027 -
Stephen Humphrys Bradford City Active 109 / 111 40% 1 11.05.2027 -
Koki Saito Queens Park Rangers Active 134 / 114 40% 1 10.05.2027 -
Caolan Boyd-Munce Wycombe Wanderers Active 125 / 109 40% 1 09.05.2027 -
Andy Rinomhota Reading Active 114 / 125 40% 1 09.05.2027 -
Ilias Chair Queens Park Rangers Active 137 / 138 40% 1 07.05.2027 -
Mduduzi Shabalala Kaizer Chiefs Active 130 / 108 40% 2 06.05.2027 Needs More Info
Matthew Sorinola Newport County Active 117 / 104 40% 1 05.05.2027 -
Connor Ogilvie Bristol Rovers Active 117 / 117 40% 1 05.05.2027 -
Chris Mepham West Bromwich Albion Active 140 / 118 40% 1 04.05.2027 -
Nat Phillips West Bromwich Albion Active 117 / 112 40% 1 04.05.2027 -
Ryan Trevitt Cambridge United Active 122 / 107 40% 1 03.05.2027 -
Edoardo Bove Watford Active 123 / 143 40% 1 03.05.2027 -
Harvey White Stevenage Active 121 / 107 40% 2 01.05.2027 -
Daniel Tonoli Modena Active 127 / 135 40% 1 30.04.2027 -
Marquinhos APOEL Active 113 / 140 40% 2 29.04.2027 -
Simone Mazzocchi Cosenza Active 124 / 103 40% 1 25.04.2027 -
Gabriel Strefezza Palermo Active 129 / 123 40% 2 24.04.2027 -
Patrick Maswanganyi Orlando Pirates Active 99 / 99 40% 4 23.04.2027 -
Joseph Wakaso Wa All Stars Active 118 / 102 40% 1 23.04.2027 -
Williams Manyama SuperSport United Active 120 / 112 40% 3 22.04.2027 -
Giacomo Zecca Torres Active 103 / 96 40% 1 22.04.2027 -
Simon Ramabu Polokwane City Active 90 / 96 40% 3 20.04.2027 -
Mattia Bortolussi Padova Active 128 / 121 40% 1 18.04.2027 -
Marcelo Allende Mamelodi Sundowns Active 146 / 145 40% 1 17.04.2027 -
Gaetano Castrovilli Cesena Active 142 / 116 40% 2 16.04.2027 -
Leo Goglichidze Rodina Active 124 / 122 40% 1 15.04.2027 -
Andrea Colpani Monza Active 139 / 134 40% 1 13.04.2027 -
Idrissa Touré Monza Active 136 / 124 40% 1 12.04.2027 -
Massimiliano Mangraviti Cesena Active 113 / 118 40% 2 11.04.2027 -
Giuseppe Pezzella Cremonese Active 123 / 136 40% 1 11.04.2027 -
Antonio Palumbo Palermo Active 136 / 128 40% 1 09.04.2027 -
Nduduzo Sibiya Golden Arrows Active 99 / 94 40% 4 07.04.2027 -
Camillo Tavernelli Arezzo Active 117 / 117 40% 1 05.04.2027 -
Samuel Tetteh Ashanti Gold Active 113 / 120 40% 1 04.04.2027 -
Aaron Drinan Swindon Town Active 102 / 92 40% 1 30.03.2027 -
Happy Mashiane Bloemfontein Celtic Active 98 / 105 40% 2 25.03.2027 -
Thalente Mbatha Orlando Pirates Active 123 / 135 40% 1 21.03.2027 -
Velemseni Ndwandwe Golden Arrows Active 127 / 99 40% 3 19.03.2027 -
Fortune Bassey Djoliba Active 85 / 94 40% 1 16.03.2027 -
Friday Ubong Ashanti Gold Active 115 / 88 40% 1 16.03.2027 -
Oswin Appollis Orlando Pirates Active 138 / 139 40% 3 15.03.2027 -
Mfundo Vilakazi Kaizer Chiefs Active 124 / 113 40% 1 14.03.2027 -
Erick Hlatshwayo Ajax Cape Town Active 88 / 100 40% 2 12.03.2027 -
Mandla Erasmus SuperSport United Active 109 / 123 40% 4 08.03.2027 -
Álvaro Carrillo APOEL Active 137 / 136 40% 1 08.03.2027 -
Siyanda Ndlovu Bloemfontein Celtic Active 125 / 119 40% 2 06.03.2027 -
Abdennour Iheb Belhocini JS Kabylie Active 113 / 120 40% 1 04.03.2027 -
Maksim Kireev KV Mechelen Active 125 / 118 40% 1 02.03.2027 -
Bathusi Aubaas Mamelodi Sundowns Active 111 / 101 40% 2 01.03.2027 -
Sebastián Arce Rodina Active 115 / 110 40% 2 25.02.2027 -
Fawaaz Basadien Mamelodi Sundowns Active 121 / 105 40% 3 20.02.2027 -
Dániel Lukács Puskas Akademia Active 103 / 120 40% 1 18.02.2027 -
José Martínes CSKA 1948 Active 113 / 108 40% 1 12.02.2027 -
Mazire Soula Levski Active 119 / 118 40% 2 11.02.2027 -
Xande Spartak 1918 Active 101 / 95 40% 1 11.02.2027 -
Jordan Lotomba Bloemfontein Celtic Active 135 / 119 40% 1 07.02.2027 -
Konstantinos Balogiannis Apollon Active 103 / 135 40% 1 06.02.2027 -
Ayanda Jiyane Golden Arrows Active 97 / 122 40% 1 06.02.2027 -
Đorđe Pantelić Spartak Kostroma Active 106 / 100 40% 1 01.02.2027 -
Arsen Adamov Akhmat Grozny Active 126 / 128 40% 1 01.01.2027 -
Femi Seriki Sheffield United Active 131 / 124 40% 1 07.12.2026 Needs More Info
Erick Jali Black Aces Active 124 / 117 40% 1 21.11.2026 -
Rushwin Dortley Kaizer Chiefs Active 118 / 98 40% 1 18.11.2026 -
Themba Mokotjo Platinum Stars Active 120 / 88 40% 1 18.11.2026 -
Liam Bennett Cambridge United Active 114 / 109 40% 1 03.11.2026 -
Andras Nikolic Haladas Active 107 / 99 40% 1 03.11.2026 -
Andile Manyama SuperSport United Active 125 / 118 40% 1 05.10.2026 -
Arne Maier Ujpest Active 125 / 110 40% 1 08.09.2026 -
Francisco Perruzzi Aldosivi Active 115 / 108 40% 1 08.09.2026 -
Diego Valencia Universidad Catolica Active 120 / 122 40% 1 19.08.2026 -
Gabriel Jesus Barcelona Active 143 / 151 40% 2 03.08.2026 -